Terminal Aerodrome Forecast
Issued by NWS Blacksburg, VA

Current Version | Previous Version | Text Only | Print | Product List | Glossary Off
Versions: 1 2 3 4 5 6 7 8 9 10 11 12 13 14 15 16 17 18 19 20 21 22 23 24 25 26 27 28 29 30 31 32 33 34 35 36 37 38 39 40 41 42 43 44

000
FTUS41 KRNK 251337 AAA
TAFBLF
TAF AMD
KBLF 251337Z 2514/2612 27011KT P6SM SCT025
     FM252000 VRB03KT P6SM SCT015
     FM252300 07003KT P6SM OVC015
     FM260300 13003KT P6SM -SN OVC012
     FM260500 12003KT 1 1/2SM -SN BR OVC004
     FM260900 11004KT 3SM -SN BR OVC015=

USA.gov is the U.S. government's official web portal to all federal, state and local government web resources and services.